Time;durP1;ratioP1;P1;durP2;ratioP2;P2;SDS_P1;SDS_P2;PMS_P1;PMS_P2;Temp;Humidity;BMP_temperature;BMP_pressure;BME280_temperature;BME280_humidity;BME280_pressure;Samples;Min_cycle;Max_cycle;Signal;HPM_P1;HPM_P2
2023/10/25 00:02:23;;;;;;;23.58;12.65;;;;;;;;;;7368371;19;20002;-75
2023/10/25 00:04:53;;;;;;;24.98;13.77;;;;;;;;;;7370119;19;20373;-75
2023/10/25 00:07:19;;;;;;;30.55;14.20;;;;;;;;;;7370450;19;20417;-74
2023/10/25 00:09:44;;;;;;;28.63;13.77;;;;;;;;;;7370118;19;20082;-75
2023/10/25 00:12:09;;;;;;;24.20;12.40;;;;;;;;;;7391669;19;20010;-74
2023/10/25 00:14:35;;;;;;;24.15;13.20;;;;;;;;;;7369070;19;20013;-75
2023/10/25 00:17:00;;;;;;;27.83;12.23;;;;;;;;;;7368846;19;20011;-74
2023/10/25 00:19:26;;;;;;;25.75;13.38;;;;;;;;;;7369269;19;20544;-74
2023/10/25 00:21:51;;;;;;;27.23;13.02;;;;;;;;;;7369252;19;20095;-74
2023/10/25 00:24:16;;;;;;;25.75;13.25;;;;;;;;;;7389957;19;20014;-74
2023/10/25 00:26:42;;;;;;;38.10;14.27;;;;;;;;;;7366913;19;20030;-75
2023/10/25 00:29:07;;;;;;;32.50;14.52;;;;;;;;;;7369881;19;20010;-76
2023/10/25 00:31:32;;;;;;;43.85;15.55;;;;;;;;;;7377281;19;20042;-74
2023/10/25 00:33:58;;;;;;;41.03;15.30;;;;;;;;;;7387514;19;19998;-74
2023/10/25 00:36:23;;;;;;;47.45;16.80;;;;;;;;;;7411868;19;20388;-75
2023/10/25 00:38:48;;;;;;;74.60;16.95;;;;;;;;;;7367823;19;20010;-76
2023/10/25 00:41:14;;;;;;;50.42;17.20;;;;;;;;;;7365873;19;20041;-76
2023/10/25 00:43:39;;;;;;;98.45;19.60;;;;;;;;;;7365566;19;20007;-74
2023/10/25 00:46:12;;;;;;;49.35;17.13;;;;;;;;;;7367905;19;20018;-75
2023/10/25 00:48:40;;;;;;;66.28;18.98;;;;;;;;;;7390572;19;20033;-74
2023/10/25 00:51:06;;;;;;;68.20;19.13;;;;;;;;;;7367763;19;20549;-75
2023/10/25 00:53:33;;;;;;;292.88;27.75;;;;;;;;;;7366268;19;20011;-74
2023/10/25 00:56:00;;;;;;;145.90;20.73;;;;;;;;;;7368376;19;20014;-74
2023/10/25 00:58:26;;;;;;;233.98;24.13;;;;;;;;;;7367560;19;20074;-75
2023/10/25 01:00:55;;;;;;;266.45;23.38;;;;;;;;;;7369035;19;20074;-75
2023/10/25 01:03:21;;;;;;;148.32;20.85;;;;;;;;;;7387360;19;20096;-74
2023/10/25 01:05:47;;;;;;;190.63;23.40;;;;;;;;;;7367900;19;20009;-75
2023/10/25 01:08:18;;;;;;;139.57;20.50;;;;;;;;;;7368087;19;20082;-75
2023/10/25 01:10:43;;;;;;;187.48;19.70;;;;;;;;;;7367875;19;20002;-75
2023/10/25 01:13:09;;;;;;;101.80;17.60;;;;;;;;;;7365789;19;20010;-75
2023/10/25 01:15:34;;;;;;;38.30;15.40;;;;;;;;;;7391849;19;20003;-74
2023/10/25 01:17:59;;;;;;;124.72;17.38;;;;;;;;;;7371895;19;20328;-74
2023/10/25 01:20:25;;;;;;;113.50;17.05;;;;;;;;;;7367566;19;20005;-74
2023/10/25 01:22:50;;;;;;;66.38;17.70;;;;;;;;;;7367325;19;20387;-74
2023/10/25 01:25:15;;;;;;;41.88;17.10;;;;;;;;;;7367623;19;20014;-75
2023/10/25 01:27:41;;;;;;;34.67;16.35;;;;;;;;;;7380062;19;20011;-76
2023/10/25 01:30:07;;;;;;;27.63;15.73;;;;;;;;;;7381779;19;20527;-75
2023/10/25 01:32:32;;;;;;;24.98;14.20;;;;;;;;;;7365942;19;20023;-74
2023/10/25 01:34:57;;;;;;;28.75;14.43;;;;;;;;;;7365086;19;20118;-75
2023/10/25 01:37:23;;;;;;;34.42;15.32;;;;;;;;;;7366992;19;20030;-75
2023/10/25 01:39:48;;;;;;;34.45;16.02;;;;;;;;;;7366604;19;19998;-75
2023/10/25 01:42:13;;;;;;;28.25;15.07;;;;;;;;;;7388250;19;20023;-75
2023/10/25 01:44:39;;;;;;;33.67;17.00;;;;;;;;;;7365931;19;20042;-75
2023/10/25 01:47:05;;;;;;;44.53;17.27;;;;;;;;;;7367086;19;20178;-74
2023/10/25 01:49:30;;;;;;;38.75;17.30;;;;;;;;;;7366846;19;20013;-74
2023/10/25 01:51:57;;;;;;;38.65;15.52;;;;;;;;;;7366352;19;20361;-75
2023/10/25 01:54:22;;;;;;;36.80;16.10;;;;;;;;;;7387148;19;20006;-74
2023/10/25 01:56:48;;;;;;;43.70;17.63;;;;;;;;;;7366687;19;20002;-75
2023/10/25 01:59:13;;;;;;;38.35;17.55;;;;;;;;;;7366713;19;20006;-75
2023/10/25 02:01:38;;;;;;;40.10;16.38;;;;;;;;;;7366179;19;20002;-74
2023/10/25 02:04:04;;;;;;;36.85;16.70;;;;;;;;;;7363306;19;20007;-74
2023/10/25 02:06:30;;;;;;;34.92;15.98;;;;;;;;;;7387166;19;19995;-74
2023/10/25 02:08:55;;;;;;;56.03;18.60;;;;;;;;;;7365463;19;20015;-76
2023/10/25 02:11:21;;;;;;;47.47;16.65;;;;;;;;;;7367140;19;20035;-76
2023/10/25 02:13:47;;;;;;;59.05;18.60;;;;;;;;;;7365772;19;20071;-76
2023/10/25 02:16:16;;;;;;;84.50;19.88;;;;;;;;;;7366550;19;20038;-76
2023/10/25 02:18:42;;;;;;;62.25;18.95;;;;;;;;;;7374564;19;19999;-76
2023/10/25 02:21:08;;;;;;;67.47;20.55;;;;;;;;;;7401775;19;20005;-76
2023/10/25 02:23:34;;;;;;;120.35;23.33;;;;;;;;;;7378532;19;20337;-76
2023/10/25 02:25:59;;;;;;;85.50;21.10;;;;;;;;;;7384461;19;20030;-76
2023/10/25 02:28:24;;;;;;;92.75;22.90;;;;;;;;;;7367296;19;20062;-76
2023/10/25 02:30:50;;;;;;;109.35;23.35;;;;;;;;;;7366470;19;19998;-76
2023/10/25 02:33:15;;;;;;;121.60;24.73;;;;;;;;;;7385894;19;20369;-76
2023/10/25 02:35:40;;;;;;;77.25;22.35;;;;;;;;;;7364801;19;20036;-76
2023/10/25 02:38:05;;;;;;;134.38;25.42;;;;;;;;;;7364872;19;20501;-76
2023/10/25 02:40:31;;;;;;;97.43;22.95;;;;;;;;;;7365960;19;20015;-76
2023/10/25 02:42:56;;;;;;;160.73;24.00;;;;;;;;;;7365278;19;19999;-76
2023/10/25 02:45:21;;;;;;;127.10;21.15;;;;;;;;;;7386638;19;20003;-75
2023/10/25 02:47:47;;;;;;;176.95;23.05;;;;;;;;;;7364775;19;20011;-75
2023/10/25 02:50:12;;;;;;;144.98;22.33;;;;;;;;;;7365010;19;20439;-75
2023/10/25 02:52:38;;;;;;;124.57;21.70;;;;;;;;;;7363773;19;20490;-75
2023/10/25 02:55:03;;;;;;;241.65;24.23;;;;;;;;;;7363908;19;20006;-75
2023/10/25 02:57:29;;;;;;;184.20;21.98;;;;;;;;;;7385891;19;20440;-75
2023/10/25 02:59:54;;;;;;;267.65;24.50;;;;;;;;;;7364427;19;20074;-75
2023/10/25 03:02:19;;;;;;;300.90;26.85;;;;;;;;;;7364801;19;20002;-75
2023/10/25 03:04:45;;;;;;;191.25;24.25;;;;;;;;;;7360650;19;20002;-75
2023/10/25 03:07:10;;;;;;;236.55;25.63;;;;;;;;;;7363862;19;20009;-75
2023/10/25 03:09:35;;;;;;;123.68;22.75;;;;;;;;;;7387709;19;20046;-75
2023/10/25 03:12:00;;;;;;;131.38;24.30;;;;;;;;;;7363811;19;20574;-75
2023/10/25 03:14:26;;;;;;;179.10;26.45;;;;;;;;;;7363408;19;20320;-75
2023/10/25 03:16:51;;;;;;;153.02;25.77;;;;;;;;;;7364904;19;20010;-75
2023/10/25 03:19:17;;;;;;;187.68;29.85;;;;;;;;;;7364264;19;20013;-75
2023/10/25 03:21:42;;;;;;;197.02;27.85;;;;;;;;;;7364340;19;20011;-75
2023/10/25 03:24:08;;;;;;;260.92;30.98;;;;;;;;;;7384236;19;20003;-75
2023/10/25 03:26:33;;;;;;;160.75;27.60;;;;;;;;;;7362208;19;19999;-75
2023/10/25 03:28:58;;;;;;;150.82;26.77;;;;;;;;;;7362427;19;20006;-75
2023/10/25 03:31:24;;;;;;;135.85;27.48;;;;;;;;;;7364275;19;20094;-75
2023/10/25 03:33:49;;;;;;;188.65;27.85;;;;;;;;;;7360817;19;20007;-75
2023/10/25 03:36:15;;;;;;;188.93;27.08;;;;;;;;;;7385735;19;20017;-75
2023/10/25 03:38:40;;;;;;;193.00;27.52;;;;;;;;;;7368575;19;20518;-75
2023/10/25 03:41:07;;;;;;;192.52;26.80;;;;;;;;;;7371372;19;20042;-75
2023/10/25 03:43:36;;;;;;;203.82;26.60;;;;;;;;;;7368660;19;20011;-75
2023/10/25 03:46:08;;;;;;;95.32;23.80;;;;;;;;;;7370831;19;19996;-76
2023/10/25 03:48:34;;;;;;;133.27;24.77;;;;;;;;;;7392465;19;20018;-75
2023/10/25 03:51:03;;;;;;;109.22;26.10;;;;;;;;;;7369940;19;20484;-75
2023/10/25 03:53:29;;;;;;;143.35;28.73;;;;;;;;;;7368969;19;20031;-75
2023/10/25 03:55:57;;;;;;;126.13;24.52;;;;;;;;;;7369399;19;20002;-74
2023/10/25 03:58:24;;;;;;;207.15;30.23;;;;;;;;;;7369563;19;20714;-75
2023/10/25 04:00:57;;;;;;;185.07;27.83;;;;;;;;;;7370320;19;20339;-74
2023/10/25 04:03:22;;;;;;;334.48;36.00;;;;;;;;;;7389184;19;20496;-76
2023/10/25 04:05:48;;;;;;;232.45;28.50;;;;;;;;;;7368735;19;20032;-76
2023/10/25 04:08:14;;;;;;;156.35;25.08;;;;;;;;;;7370049;19;20014;-75
2023/10/25 04:10:39;;;;;;;161.40;25.38;;;;;;;;;;7373519;19;20014;-75
2023/10/25 04:13:04;;;;;;;234.95;27.73;;;;;;;;;;7369993;19;20018;-76
2023/10/25 04:15:34;;;;;;;173.35;25.52;;;;;;;;;;7391038;19;20026;-76
2023/10/25 04:18:00;;;;;;;238.15;26.52;;;;;;;;;;7368995;19;20013;-75
2023/10/25 04:20:31;;;;;;;204.05;25.02;;;;;;;;;;7369683;19;20122;-76
2023/10/25 04:22:56;;;;;;;228.50;25.15;;;;;;;;;;7380237;19;20031;-75
2023/10/25 04:25:22;;;;;;;148.27;22.02;;;;;;;;;;7390088;19;20046;-75
2023/10/25 04:27:47;;;;;;;245.45;23.67;;;;;;;;;;7388417;19;20677;-76
2023/10/25 04:30:13;;;;;;;169.93;23.63;;;;;;;;;;7391777;19;20001;-75
2023/10/25 04:32:38;;;;;;;130.65;21.58;;;;;;;;;;7364332;19;20031;-76
2023/10/25 04:35:04;;;;;;;390.25;34.45;;;;;;;;;;7368300;19;20138;-74
2023/10/25 04:37:29;;;;;;;408.58;31.35;;;;;;;;;;7370010;19;20356;-75
2023/10/25 04:39:54;;;;;;;404.38;29.92;;;;;;;;;;7368290;19;20022;-76
2023/10/25 04:42:19;;;;;;;104.00;19.70;;;;;;;;;;7390090;19;20007;-76
2023/10/25 04:44:45;;;;;;;173.57;23.23;;;;;;;;;;7367537;19;20026;-75
2023/10/25 04:47:10;;;;;;;176.13;23.20;;;;;;;;;;7368912;19;20082;-77
2023/10/25 04:49:36;;;;;;;155.25;20.88;;;;;;;;;;7365076;19;20070;-76
2023/10/25 04:52:01;;;;;;;154.05;21.85;;;;;;;;;;7367169;19;20393;-77
2023/10/25 04:54:27;;;;;;;95.43;20.75;;;;;;;;;;7390537;19;20079;-77
2023/10/25 04:56:52;;;;;;;274.05;25.88;;;;;;;;;;7368686;19;20011;-76
2023/10/25 04:59:17;;;;;;;153.68;24.13;;;;;;;;;;7368168;19;20024;-75
2023/10/25 05:01:46;;;;;;;85.85;21.63;;;;;;;;;;7367883;19;20070;-75
2023/10/25 05:04:11;;;;;;;108.28;21.38;;;;;;;;;;7370659;19;20057;-75
2023/10/25 05:06:37;;;;;;;76.43;21.35;;;;;;;;;;7389387;19;20003;-75
2023/10/25 05:09:02;;;;;;;105.28;21.73;;;;;;;;;;7365258;19;20034;-75
2023/10/25 05:11:30;;;;;;;101.43;21.40;;;;;;;;;;7365624;19;20373;-74
2023/10/25 05:13:56;;;;;;;87.95;20.55;;;;;;;;;;7364771;19;20010;-75
2023/10/25 05:16:21;;;;;;;114.22;20.48;;;;;;;;;;7365462;19;20079;-75
2023/10/25 05:18:47;;;;;;;136.65;22.63;;;;;;;;;;7366686;19;20014;-76
2023/10/25 05:21:15;;;;;;;115.57;22.33;;;;;;;;;;7387860;19;20011;-76
2023/10/25 05:23:41;;;;;;;161.88;23.08;;;;;;;;;;7364423;19;20015;-76
2023/10/25 05:26:07;;;;;;;149.25;22.75;;;;;;;;;;7367113;19;20151;-76
2023/10/25 05:28:33;;;;;;;89.85;21.08;;;;;;;;;;7368442;19;20104;-76
2023/10/25 05:31:03;;;;;;;85.47;20.40;;;;;;;;;;7367256;19;20010;-76
2023/10/25 05:33:31;;;;;;;59.35;19.23;;;;;;;;;;7388122;19;20037;-76
2023/10/25 05:35:57;;;;;;;77.22;19.92;;;;;;;;;;7367844;19;20006;-76
2023/10/25 05:38:23;;;;;;;136.95;23.20;;;;;;;;;;7366733;19;20010;-76
2023/10/25 05:40:51;;;;;;;131.07;21.95;;;;;;;;;;7367731;19;20194;-76
2023/10/25 05:43:18;;;;;;;91.38;21.90;;;;;;;;;;7365609;19;20007;-76
2023/10/25 05:45:43;;;;;;;106.75;22.38;;;;;;;;;;7365890;19;20015;-76
2023/10/25 05:48:13;;;;;;;86.95;20.30;;;;;;;;;;7390104;19;20017;-76
2023/10/25 05:50:43;;;;;;;82.30;21.88;;;;;;;;;;7366552;19;20010;-76
2023/10/25 05:53:13;;;;;;;73.65;20.85;;;;;;;;;;7365346;19;20018;-76
2023/10/25 05:55:38;;;;;;;73.25;21.20;;;;;;;;;;7366559;19;20084;-75
2023/10/25 05:58:04;;;;;;;107.75;21.60;;;;;;;;;;7353750;19;20422;-76
2023/10/25 06:00:29;;;;;;;82.75;20.70;;;;;;;;;;7382654;19;19990;-76
2023/10/25 06:02:56;;;;;;;90.82;21.42;;;;;;;;;;7366398;19;20360;-75
2023/10/25 06:05:23;;;;;;;106.28;20.98;;;;;;;;;;7369712;19;20070;-75
2023/10/25 06:07:49;;;;;;;62.88;21.05;;;;;;;;;;7396685;19;20013;-74
2023/10/25 06:10:15;;;;;;;91.70;22.33;;;;;;;;;;7397942;19;20472;-75
2023/10/25 06:12:40;;;;;;;110.65;24.20;;;;;;;;;;7402331;19;20006;-75
2023/10/25 06:15:06;;;;;;;142.18;22.50;;;;;;;;;;7374910;19;20002;-77
2023/10/25 06:17:33;;;;;;;84.18;22.50;;;;;;;;;;7366102;19;20017;-75
2023/10/25 06:19:58;;;;;;;116.82;21.90;;;;;;;;;;7366846;19;20037;-76
2023/10/25 06:22:24;;;;;;;157.93;24.23;;;;;;;;;;7365713;19;20010;-76
2023/10/25 06:24:49;;;;;;;103.22;22.80;;;;;;;;;;7366701;19;20008;-75
2023/10/25 06:27:14;;;;;;;157.45;26.00;;;;;;;;;;7386969;19;20010;-76
2023/10/25 06:29:40;;;;;;;160.55;25.15;;;;;;;;;;7366186;19;20032;-75
2023/10/25 06:32:05;;;;;;;80.28;21.77;;;;;;;;;;7365475;19;20626;-75
2023/10/25 06:34:31;;;;;;;101.43;23.55;;;;;;;;;;7365265;19;20011;-75
2023/10/25 06:36:56;;;;;;;425.42;32.75;;;;;;;;;;7365849;19;20009;-75
2023/10/25 06:39:22;;;;;;;150.05;26.70;;;;;;;;;;7388352;19;20006;-73
2023/10/25 06:41:48;;;;;;;138.75;25.08;;;;;;;;;;7368626;19;20014;-74
2023/10/25 06:44:14;;;;;;;198.85;26.95;;;;;;;;;;7366168;19;20688;-75
2023/10/25 06:46:39;;;;;;;193.52;26.83;;;;;;;;;;7355477;19;20007;-76
2023/10/25 06:49:05;;;;;;;120.88;24.67;;;;;;;;;;7364830;19;20019;-74
2023/10/25 06:51:31;;;;;;;130.80;25.75;;;;;;;;;;7387560;19;20060;-73
2023/10/25 06:53:57;;;;;;;106.10;26.08;;;;;;;;;;7361327;19;20006;-74
2023/10/25 06:56:22;;;;;;;229.68;29.33;;;;;;;;;;7364918;19;20019;-74
2023/10/25 06:58:49;;;;;;;152.50;26.55;;;;;;;;;;7365194;19;20031;-76
2023/10/25 07:01:18;;;;;;;139.35;25.33;;;;;;;;;;7366195;19;20011;-75
2023/10/25 07:03:48;;;;;;;217.20;30.05;;;;;;;;;;7360720;19;20395;-76
2023/10/25 07:06:17;;;;;;;176.13;28.23;;;;;;;;;;7387036;19;20011;-74
2023/10/25 07:08:44;;;;;;;211.13;28.00;;;;;;;;;;7363362;19;20479;-75
2023/10/25 07:11:10;;;;;;;208.45;30.00;;;;;;;;;;7364813;19;20007;-75
2023/10/25 07:13:35;;;;;;;145.32;28.38;;;;;;;;;;7367361;19;20021;-74
2023/10/25 07:16:00;;;;;;;218.88;29.30;;;;;;;;;;7373473;19;20012;-75
2023/10/25 07:18:27;;;;;;;210.02;31.63;;;;;;;;;;7394751;19;20006;-75
2023/10/25 07:20:53;;;;;;;231.38;32.10;;;;;;;;;;7373230;19;20014;-73
2023/10/25 07:23:18;;;;;;;214.48;48.42;;;;;;;;;;7370161;19;20022;-74
2023/10/25 07:25:44;;;;;;;128.77;30.15;;;;;;;;;;7371196;19;20086;-73
2023/10/25 07:28:10;;;;;;;156.50;27.63;;;;;;;;;;7373479;19;20006;-74
2023/10/25 07:30:36;;;;;;;149.35;30.35;;;;;;;;;;7393418;19;20417;-74
2023/10/25 07:33:02;;;;;;;165.57;28.80;;;;;;;;;;7370367;19;20014;-74
2023/10/25 07:35:27;;;;;;;117.03;29.75;;;;;;;;;;7370455;19;20023;-74
2023/10/25 07:37:53;;;;;;;172.65;29.90;;;;;;;;;;7371769;19;20011;-74
2023/10/25 07:40:18;;;;;;;343.27;35.72;;;;;;;;;;7371332;19;20397;-74
2023/10/25 07:42:44;;;;;;;162.68;30.00;;;;;;;;;;7375922;19;20006;-78
2023/10/25 07:45:09;;;;;;;155.63;29.10;;;;;;;;;;7394916;19;20014;-75
2023/10/25 07:47:35;;;;;;;175.32;30.27;;;;;;;;;;7373729;19;20007;-74
2023/10/25 07:50:00;;;;;;;137.27;28.25;;;;;;;;;;7374686;19;20015;-75
2023/10/25 07:52:27;;;;;;;164.18;29.13;;;;;;;;;;7370921;19;20744;-74
2023/10/25 07:54:53;;;;;;;146.23;29.63;;;;;;;;;;7374487;19;19998;-74
2023/10/25 07:57:19;;;;;;;114.40;28.88;;;;;;;;;;7396239;19;20002;-74
2023/10/25 07:59:44;;;;;;;130.27;28.10;;;;;;;;;;7370642;19;20011;-74
2023/10/25 08:02:10;;;;;;;114.25;28.25;;;;;;;;;;7370310;19;20006;-74
2023/10/25 08:04:35;;;;;;;159.73;30.55;;;;;;;;;;7370489;19;20007;-73
2023/10/25 08:07:01;;;;;;;146.50;29.58;;;;;;;;;;7371694;19;20454;-74
2023/10/25 08:09:26;;;;;;;131.73;28.92;;;;;;;;;;7394066;19;20402;-74
2023/10/25 08:11:54;;;;;;;113.60;28.88;;;;;;;;;;7384502;19;20006;-74
2023/10/25 08:14:20;;;;;;;115.55;27.67;;;;;;;;;;7400530;19;20031;-75
2023/10/25 08:16:45;;;;;;;100.45;26.58;;;;;;;;;;7386156;19;20015;-73
2023/10/25 08:19:11;;;;;;;104.70;26.38;;;;;;;;;;7377052;19;20027;-74
2023/10/25 08:21:37;;;;;;;105.07;28.83;;;;;;;;;;7393076;19;20547;-74
2023/10/25 08:24:05;;;;;;;104.97;27.35;;;;;;;;;;7366641;19;20003;-75
2023/10/25 08:26:34;;;;;;;109.88;27.58;;;;;;;;;;7368028;19;20661;-74
2023/10/25 08:29:00;;;;;;;90.18;26.08;;;;;;;;;;7370710;19;20005;-74
2023/10/25 08:31:26;;;;;;;78.38;27.42;;;;;;;;;;7370226;19;20010;-75
2023/10/25 08:33:51;;;;;;;74.68;25.70;;;;;;;;;;7368166;19;20007;-73
2023/10/25 08:36:16;;;;;;;65.20;25.08;;;;;;;;;;7392667;19;20034;-74
2023/10/25 08:38:42;;;;;;;64.65;25.88;;;;;;;;;;7369639;19;20006;-75
2023/10/25 08:41:07;;;;;;;65.22;26.95;;;;;;;;;;7371677;19;20491;-74
2023/10/25 08:43:37;;;;;;;53.17;25.83;;;;;;;;;;7372460;19;20472;-74
2023/10/25 08:46:04;;;;;;;57.35;25.85;;;;;;;;;;7372456;19;20552;-74
2023/10/25 08:48:30;;;;;;;46.88;24.60;;;;;;;;;;7392160;19;20058;-75
2023/10/25 08:50:56;;;;;;;47.85;23.27;;;;;;;;;;7369632;19;20030;-74
2023/10/25 08:53:26;;;;;;;54.45;32.40;;;;;;;;;;7366612;19;20435;-75
2023/10/25 08:55:53;;;;;;;39.28;21.23;;;;;;;;;;7369309;19;20022;-74
2023/10/25 08:58:23;;;;;;;30.10;19.17;;;;;;;;;;7368421;19;20017;-75
2023/10/25 09:00:50;;;;;;;30.55;18.63;;;;;;;;;;7365930;19;20001;-74
2023/10/25 09:03:34;;;;;;;29.17;18.58;;;;;;;;;;7387566;19;20006;-75
2023/10/25 09:06:02;;;;;;;24.80;15.23;;;;;;;;;;7368981;19;20401;-75
2023/10/25 09:08:28;;;;;;;22.40;13.45;;;;;;;;;;7365031;19;20239;-74
2023/10/25 09:11:02;;;;;;;19.83;12.10;;;;;;;;;;7363773;19;20492;-75
2023/10/25 09:13:29;;;;;;;18.52;11.27;;;;;;;;;;7367568;19;20122;-75
2023/10/25 09:16:07;;;;;;;16.92;11.40;;;;;;;;;;7368618;19;20452;-75
2023/10/25 09:18:34;;;;;;;16.90;11.32;;;;;;;;;;7388129;19;20476;-76
2023/10/25 09:21:01;;;;;;;16.60;11.32;;;;;;;;;;7368493;19;20356;-76
2023/10/25 09:23:28;;;;;;;15.80;10.57;;;;;;;;;;7366662;19;20022;-76
2023/10/25 09:26:00;;;;;;;15.88;10.75;;;;;;;;;;7368183;19;20021;-76
2023/10/25 09:28:30;;;;;;;14.52;9.90;;;;;;;;;;7368493;19;20030;-75
2023/10/25 09:30:58;;;;;;;14.85;9.93;;;;;;;;;;7367709;19;20014;-77
2023/10/25 09:33:24;;;;;;;14.35;9.77;;;;;;;;;;7387823;19;20523;-75
2023/10/25 09:35:51;;;;;;;16.08;10.20;;;;;;;;;;7365321;19;20003;-74
2023/10/25 09:38:16;;;;;;;17.10;10.40;;;;;;;;;;7368559;19;20010;-74
2023/10/25 09:40:43;;;;;;;15.55;10.40;;;;;;;;;;7370581;19;20022;-77
2023/10/25 09:43:18;;;;;;;19.27;11.20;;;;;;;;;;7366528;19;20014;-74
2023/10/25 09:45:50;;;;;;;21.17;11.32;;;;;;;;;;7367829;19;20022;-76
2023/10/25 09:48:18;;;;;;;18.05;11.05;;;;;;;;;;7385760;19;20023;-73
2023/10/25 09:51:02;;;;;;;20.63;12.13;;;;;;;;;;7369546;19;20003;-73
2023/10/25 09:53:36;;;;;;;19.67;12.27;;;;;;;;;;7391662;19;20014;-73
2023/10/25 09:56:04;;;;;;;16.83;11.57;;;;;;;;;;7395111;19;20003;-74
2023/10/25 09:58:34;;;;;;;19.05;12.18;;;;;;;;;;7373216;19;20006;-74
2023/10/25 10:01:00;;;;;;;17.23;12.27;;;;;;;;;;7368783;19;20002;-74
2023/10/25 10:03:47;;;;;;;20.83;12.45;;;;;;;;;;7388290;19;20037;-74
2023/10/25 10:06:23;;;;;;;22.27;13.60;;;;;;;;;;7365921;19;20010;-73
2023/10/25 10:09:09;;;;;;;21.52;14.07;;;;;;;;;;7367023;19;20010;-75
2023/10/25 10:11:38;;;;;;;23.20;14.40;;;;;;;;;;7366155;19;20373;-74
2023/10/25 10:14:36;;;;;;;24.10;14.52;;;;;;;;;;7365149;19;20833;-75
2023/10/25 10:17:16;;;;;;;21.75;13.38;;;;;;;;;;7368077;19;20086;-75
2023/10/25 10:19:43;;;;;;;19.00;12.85;;;;;;;;;;7366629;19;20013;-74
2023/10/25 10:22:11;;;;;;;20.25;13.00;;;;;;;;;;7366215;19;20010;-75
2023/10/25 10:24:40;;;;;;;18.40;12.85;;;;;;;;;;7385524;19;20468;-74
2023/10/25 10:27:06;;;;;;;19.67;12.77;;;;;;;;;;7365169;19;20594;-74
2023/10/25 10:29:31;;;;;;;19.58;12.40;;;;;;;;;;7366815;19;20010;-74
2023/10/25 10:32:00;;;;;;;18.83;12.10;;;;;;;;;;7365377;19;20022;-74
2023/10/25 10:34:48;;;;;;;19.80;12.48;;;;;;;;;;7365421;19;20243;-69
2023/10/25 10:37:16;;;;;;;21.63;12.98;;;;;;;;;;7366182;19;20468;-66
2023/10/25 10:39:56;;;;;;;20.75;13.45;;;;;;;;;;7375806;19;20077;-64
2023/10/25 10:42:39;;;;;;;21.98;13.80;;;;;;;;;;7388226;19;20011;-63
2023/10/25 10:45:07;;;;;;;20.75;14.07;;;;;;;;;;7365128;19;20027;-64
2023/10/25 10:47:37;;;;;;;20.35;13.90;;;;;;;;;;7369821;19;20013;-64
2023/10/25 10:50:10;;;;;;;24.02;14.18;;;;;;;;;;7371864;19;20035;-66
2023/10/25 10:52:35;;;;;;;24.95;15.25;;;;;;;;;;7370591;19;20031;-74
2023/10/25 10:55:01;;;;;;;21.38;13.18;;;;;;;;;;7370966;19;20008;-74
2023/10/25 10:57:26;;;;;;;24.20;14.77;;;;;;;;;;7394800;19;20032;-73
2023/10/25 10:59:52;;;;;;;24.83;15.40;;;;;;;;;;7369411;19;20467;-74
2023/10/25 11:02:17;;;;;;;21.95;13.63;;;;;;;;;;7370419;19;20014;-74
2023/10/25 11:04:43;;;;;;;27.52;16.40;;;;;;;;;;7371797;19;20042;-73
2023/10/25 11:07:08;;;;;;;29.70;17.27;;;;;;;;;;7371735;19;20014;-74
2023/10/25 11:09:34;;;;;;;25.17;16.27;;;;;;;;;;7392872;19;20015;-73
2023/10/25 11:12:07;;;;;;;23.90;15.10;;;;;;;;;;7370819;19;20021;-74
2023/10/25 11:14:43;;;;;;;22.38;14.32;;;;;;;;;;7370656;19;20050;-74
2023/10/25 11:17:08;;;;;;;19.45;13.27;;;;;;;;;;7372274;19;20587;-75
2023/10/25 11:19:33;;;;;;;20.98;13.85;;;;;;;;;;7371393;19;20010;-73
2023/10/25 11:21:59;;;;;;;22.38;14.40;;;;;;;;;;7370972;19;20002;-75
2023/10/25 11:24:25;;;;;;;23.13;13.70;;;;;;;;;;7391424;19;20443;-75
2023/10/25 11:26:50;;;;;;;18.77;13.60;;;;;;;;;;7370001;19;20068;-74
2023/10/25 11:29:16;;;;;;;21.38;14.00;;;;;;;;;;7371261;19;20058;-72
2023/10/25 11:31:42;;;;;;;23.27;14.60;;;;;;;;;;7371332;19;20606;-74
2023/10/25 11:34:07;;;;;;;23.17;14.88;;;;;;;;;;7371681;19;20017;-74
2023/10/25 11:36:34;;;;;;;25.70;13.43;;;;;;;;;;7392998;19;20009;-73
2023/10/25 11:39:05;;;;;;;27.85;14.98;;;;;;;;;;7368795;19;20712;-73
2023/10/25 11:41:31;;;;;;;46.38;14.45;;;;;;;;;;7371323;19;20014;-73
2023/10/25 11:43:57;;;;;;;26.00;15.43;;;;;;;;;;7368607;19;20010;-74
2023/10/25 11:46:24;;;;;;;22.30;14.68;;;;;;;;;;7371267;19;21273;-75
2023/10/25 11:48:49;;;;;;;21.38;13.98;;;;;;;;;;7370383;19;20698;-74
2023/10/25 11:51:18;;;;;;;19.23;12.73;;;;;;;;;;7393252;19;19995;-75
2023/10/25 11:53:43;;;;;;;18.02;13.07;;;;;;;;;;7367048;19;20027;-76
2023/10/25 11:56:08;;;;;;;18.38;11.82;;;;;;;;;;7370097;19;20006;-75
2023/10/25 11:58:34;;;;;;;14.25;10.00;;;;;;;;;;7369910;19;20038;-74
2023/10/25 12:01:04;;;;;;;12.75;9.05;;;;;;;;;;7371178;19;20010;-75
2023/10/25 12:03:29;;;;;;;15.30;8.80;;;;;;;;;;7396157;19;20018;-73
2023/10/25 12:05:55;;;;;;;14.55;9.10;;;;;;;;;;7383330;19;20010;-76
2023/10/25 12:08:20;;;;;;;16.77;8.75;;;;;;;;;;7379531;19;20046;-77
2023/10/25 12:10:45;;;;;;;15.77;9.10;;;;;;;;;;7372335;19;20014;-76
2023/10/25 12:13:10;;;;;;;12.13;9.02;;;;;;;;;;7369787;19;20649;-76
2023/10/25 12:15:36;;;;;;;15.27;9.48;;;;;;;;;;7392024;19;20085;-74
2023/10/25 12:18:02;;;;;;;12.27;8.02;;;;;;;;;;7370223;19;20010;-76
2023/10/25 12:20:27;;;;;;;13.13;7.53;;;;;;;;;;7370260;19;20481;-74
2023/10/25 12:22:52;;;;;;;10.50;7.03;;;;;;;;;;7368843;19;20014;-75
2023/10/25 12:25:18;;;;;;;11.15;6.82;;;;;;;;;;7372726;19;20053;-76
2023/10/25 12:27:44;;;;;;;9.60;6.35;;;;;;;;;;7371312;19;20010;-75
2023/10/25 12:30:11;;;;;;;9.20;6.57;;;;;;;;;;7393347;19;19999;-75
2023/10/25 12:32:36;;;;;;;9.35;6.32;;;;;;;;;;7370318;19;20119;-74
2023/10/25 12:35:01;;;;;;;9.57;6.80;;;;;;;;;;7367917;19;20018;-74
2023/10/25 12:37:29;;;;;;;9.80;6.32;;;;;;;;;;7370382;19;20006;-74
2023/10/25 12:39:54;;;;;;;10.40;6.50;;;;;;;;;;7369473;19;20069;-75
2023/10/25 12:42:20;;;;;;;8.60;6.03;;;;;;;;;;7390166;19;20019;-75
2023/10/25 12:44:45;;;;;;;8.85;6.40;;;;;;;;;;7369488;19;20014;-73
2023/10/25 12:47:10;;;;;;;10.32;7.32;;;;;;;;;;7368810;19;20038;-72
2023/10/25 12:49:35;;;;;;;10.43;6.97;;;;;;;;;;7368467;19;20010;-75
2023/10/25 12:52:04;;;;;;;8.93;7.00;;;;;;;;;;7367164;19;20035;-75
2023/10/25 12:54:30;;;;;;;9.20;6.53;;;;;;;;;;7389630;19;20003;-76
2023/10/25 12:56:55;;;;;;;9.80;6.95;;;;;;;;;;7368061;19;20015;-75
2023/10/25 12:59:21;;;;;;;9.85;6.85;;;;;;;;;;7369026;19;20007;-75
2023/10/25 13:01:50;;;;;;;10.60;7.10;;;;;;;;;;7371737;19;20021;-75
2023/10/25 13:04:16;;;;;;;10.13;6.63;;;;;;;;;;7385050;19;20028;-80
2023/10/25 13:06:41;;;;;;;11.20;7.05;;;;;;;;;;7400392;19;20007;-77
2023/10/25 13:09:06;;;;;;;9.60;7.40;;;;;;;;;;7380775;19;20011;-77
2023/10/25 13:11:32;;;;;;;11.48;7.38;;;;;;;;;;7369975;19;20037;-77
2023/10/25 13:13:57;;;;;;;9.05;7.30;;;;;;;;;;7368426;19;20010;-77
2023/10/25 13:16:22;;;;;;;13.13;7.97;;;;;;;;;;7373512;19;20022;-74
2023/10/25 13:18:48;;;;;;;13.05;8.23;;;;;;;;;;7371734;19;20006;-75
2023/10/25 13:21:13;;;;;;;11.48;7.85;;;;;;;;;;7390868;19;20015;-72
2023/10/25 13:23:38;;;;;;;10.35;7.70;;;;;;;;;;7364610;19;20011;-72
2023/10/25 13:26:04;;;;;;;11.75;7.50;;;;;;;;;;7366395;19;20725;-73
2023/10/25 13:28:29;;;;;;;9.98;8.27;;;;;;;;;;7367827;19;20003;-73
2023/10/25 13:30:54;;;;;;;11.90;8.20;;;;;;;;;;7367159;19;20003;-73
2023/10/25 13:33:20;;;;;;;10.68;8.00;;;;;;;;;;7386095;19;20010;-74
2023/10/25 13:35:48;;;;;;;10.32;7.88;;;;;;;;;;7367243;19;20010;-72
2023/10/25 13:38:13;;;;;;;9.77;7.60;;;;;;;;;;7367384;19;20006;-73
2023/10/25 13:40:39;;;;;;;9.30;7.45;;;;;;;;;;7369826;19;20007;-75
2023/10/25 13:43:04;;;;;;;10.85;7.90;;;;;;;;;;7387400;19;20042;-74
2023/10/25 13:45:30;;;;;;;12.63;7.93;;;;;;;;;;7417982;19;20007;-74
2023/10/25 13:47:56;;;;;;;11.65;8.13;;;;;;;;;;7381284;19;20098;-73
2023/10/25 13:50:21;;;;;;;10.38;8.07;;;;;;;;;;7367813;19;20086;-72
2023/10/25 13:52:47;;;;;;;10.35;8.48;;;;;;;;;;7365694;19;20007;-74
2023/10/25 13:55:12;;;;;;;13.23;8.32;;;;;;;;;;7365109;19;20091;-74
2023/10/25 13:57:37;;;;;;;12.38;8.07;;;;;;;;;;7388552;19;20543;-73
2023/10/25 14:00:07;;;;;;;10.82;8.02;;;;;;;;;;7366580;19;20009;-74
2023/10/25 14:02:32;;;;;;;11.48;7.57;;;;;;;;;;7365293;19;20058;-74
2023/10/25 14:04:59;;;;;;;12.38;8.05;;;;;;;;;;7354941;19;20018;-73
2023/10/25 14:07:25;;;;;;;10.85;8.30;;;;;;;;;;7363421;19;20033;-75
2023/10/25 14:09:50;;;;;;;11.30;8.63;;;;;;;;;;7364638;19;20010;-73
2023/10/25 14:12:15;;;;;;;9.80;7.82;;;;;;;;;;7384285;19;20045;-74